• Join FlightAware (Why Join?)
  • Login
  • US Flag 
11:23AM EDT


 

Airport Tracker/Info


-or-


 

Live Flight TrackerFlight Track Log ✈ CTL14 ✈ 29-Apr-2013 ✈ KBMI - KPWK

Flight Track Log - Related Links

Times and Time Zones

All times are in EDT time to prevent confusion due to time zone crossing. See the CTL14 flight status page for this flight to view local times or setup timezone preferences in your user account.

Time Position Orientation Groundspeed Altitude Reporting Facility
EDT Latitude Longitude Course Direction KTS MPH feet Rate Location/Type
11:39PM 40.5222 -88.8719 20° North 142 163 2,600  Level Chicago Center
11:40PM 40.5650 -88.8514 20° North 161 185 3,800 1,020 Climbing Chicago Center
11:41PM 40.6086 -88.8386 13° North 153 176 4,700 780 Climbing Chicago Center
11:42PM 40.6497 -88.8308 North 149 171 5,500 720 Climbing Chicago Center
11:43PM 40.6914 -88.8206 11° North 152 175 6,200 600 Climbing Chicago Center
11:44PM 40.7336 -88.8097 11° North 155 178 6,800 360 Climbing Chicago Center
11:45PM 40.7772 -88.7992 10° North 157 181 7,000 60 Climbing Chicago Center
11:46PM 40.8258 -88.7881 10° North 172 198 7,000  Level Chicago Center
11:47PM 40.8750 -88.7764 10° North 178 205 7,000  Level Chicago Center
11:48PM 40.9231 -88.7642 11° North 178 205 7,000 -60 Level Chicago Center
11:49PM 40.9836 -88.7503 10° North 183 211 6,900 -60 Descending Chicago Center
11:50PM 41.0347 -88.7397 North 185 213 6,900  Level Chicago Center
11:51PM 41.0833 -88.7283 10° North 182 209 7,000  Climbing Chicago Center
11:52PM 41.1319 -88.7181 North 179 206 7,000  Level Chicago Center
11:53PM 41.1811 -88.7078 North 179 206 7,000 -300 Level Chicago Center
11:54PM 41.2328 -88.6956 10° North 186 214 6,500 -420 Descending Chicago Center
11:55PM 41.2881 -88.6850 North 197 227 6,200 -300 Descending Chicago Center
11:56PM 41.3414 -88.6756 North 196 226 5,900 -120 Descending Chicago Center
11:57PM 41.3944 -88.6650 North 194 223 6,000  Climbing Chicago Center
11:58PM 41.4450 -88.6578 North 187 215 5,900 -60 Descending Chicago Center
11:59PM 41.4958 -88.6447 11° North 187 215 5,900  Level Chicago Center
12:00AM 41.5464 -88.6303 12° North 187 215 5,900  Level Chicago Center
12:01AM 41.5978 -88.6183 10° North 188 216 5,900 -300 Level Chicago Center
12:02AM 41.6458 -88.5886 25° Northeast 201 231 5,400 -600 Descending Chicago Center
12:03AM 41.6922 -88.5378 39° Northeast 215 247 4,800 -660 Descending Chicago Center
12:04AM 41.7378 -88.4894 38° Northeast 212 244 4,100 -420 Descending Chicago Center
12:05AM 41.7839 -88.4392 39° Northeast 212 244 4,000 -60 Descending Chicago Center
12:06AM 41.8294 -88.3939 37° Northeast 209 241 4,000  Level Chicago Center
12:07AM 41.8894 -88.3725 15° North 201 231 4,000  Level Chicago Center
12:08AM 41.9344 -88.3269 37° Northeast 202 232 4,000 -60 Level Chicago Center
12:09AM 41.9792 -88.2839 36° Northeast 201 231 3,900 -300 Descending Chicago Center
12:10AM 42.0244 -88.2383 37° Northeast 201 231 3,400 -600 Descending Chicago Center
12:11AM 42.0736 -88.1883 37° Northeast 209 241 2,700 -480 Descending Chicago Center
12:12AM 42.1222 -88.1394 37° Northeast 215 247 2,500 -240 Descending Chicago Center